Capulin Mountain National Mo, New Mexico
Current Conditions -  °F | °C
As of 12:53 AM on Wednesday 26 Nov 2014 (Local Time) from KRTN Reporting Station
Clear Clear  
Wind Chill: 29°   Ceiling: Unl
Heat Index: 34°   Visibility: 10mi
Dew Point: 17°   Wind: 6mph
Humidity: 50%   Direction: 160°SSE
Pressure: 30.07"   Gusts: NA
Location:  36.7361°N, 103.978°W
Report Text: KRTN 260753Z AUTO 16005KT 10SM CLR 01/M08 A3007 RMK AO2 SLP168 T00111083
Loading
Personal Weather Stations






























Interactive Weather Map New forecast layout! Learn more

10-Day Weather Forecast

Advertisements
Track Severe Weather on mobile